Time;durP1;ratioP1;P1;durP2;ratioP2;P2;SDS_P1;SDS_P2;PMS_P1;PMS_P2;Temp;Humidity;BMP_temperature;BMP_pressure;BME280_temperature;BME280_humidity;BME280_pressure;Samples;Min_cycle;Max_cycle;Signal;HPM_P1;HPM_P2
2022/08/13 00:01:27;;;;;;;6.07;3.17;;;20.10;96.20;;;;;;5031730;28;20496;-81
2022/08/13 00:03:55;;;;;;;6.95;2.80;;;19.90;96.50;;;;;;5047357;28;20075;-80
2022/08/13 00:07:06;;;;;;;8.45;3.67;;;19.90;95.90;;;;;;4998248;28;20069;-80
2022/08/13 00:09:13;;;;;;;10.52;3.85;;;19.80;96.10;;;;;;5025935;28;20045;-80
2022/08/13 00:14:32;;;;;;;6.28;3.25;;;19.80;96.50;;;;;;5031149;28;20047;-81
2022/08/13 00:16:59;;;;;;;10.02;3.70;;;19.80;95.80;;;;;;5014627;28;20038;-80
2022/08/13 00:19:26;;;;;;;7.45;4.30;;;19.70;95.90;;;;;;5047716;28;20488;-81
2022/08/13 00:21:59;;;;;;;6.70;3.40;;;19.80;96.10;;;;;;5010070;28;20038;-80
2022/08/13 00:24:26;;;;;;;5.32;2.72;;;19.70;96.80;;;;;;5031351;28;20409;-81
2022/08/13 00:26:52;;;;;;;6.07;2.85;;;19.70;95.90;;;;;;4998124;28;20120;-80
2022/08/13 00:29:19;;;;;;;5.72;2.80;;;19.70;95.10;;;;;;5014723;28;20156;-80
2022/08/13 00:31:49;;;;;;;5.75;2.70;;;19.80;94.50;;;;;;5013123;28;20148;-80
2022/08/13 00:34:16;;;;;;;5.50;2.90;;;19.80;94.00;;;;;;4993648;28;20069;-80
2022/08/13 00:36:42;;;;;;;9.77;3.42;;;19.90;93.60;;;;;;4999884;28;20034;-80
2022/08/13 00:39:09;;;;;;;6.00;2.85;;;19.90;93.80;;;;;;5006282;28;20091;-81
2022/08/13 00:41:42;;;;;;;5.63;2.85;;;19.90;93.60;;;;;;5009039;28;20060;-80
2022/08/13 00:44:10;;;;;;;5.43;2.70;;;20.00;93.20;;;;;;5030686;28;20041;-80
2022/08/13 00:46:37;;;;;;;5.20;2.80;;;20.00;93.00;;;;;;5014330;28;20038;-80
2022/08/13 00:49:04;;;;;;;8.10;4.20;;;20.00;93.00;;;;;;5030779;28;20481;-80
2022/08/13 00:51:32;;;;;;;8.80;4.15;;;20.00;93.80;;;;;;5016433;28;20500;-81
2022/08/13 00:54:00;;;;;;;8.00;3.40;;;19.80;94.90;;;;;;5014689;28;20472;-80
2022/08/13 00:56:26;;;;;;;5.45;2.67;;;19.80;94.60;;;;;;5027719;28;20108;-80
2022/08/13 00:58:56;;;;;;;6.65;3.30;;;19.80;94.10;;;;;;5004154;28;20037;-80
2022/08/13 01:01:25;;;;;;;6.05;3.10;;;19.80;94.40;;;;;;5034122;28;20052;-80
2022/08/13 01:03:52;;;;;;;6.40;3.20;;;19.70;94.30;;;;;;5002112;28;20045;-80
2022/08/13 01:06:18;;;;;;;5.68;3.15;;;19.70;94.40;;;;;;5001153;28;20046;-80
2022/08/13 01:08:46;;;;;;;6.78;3.50;;;19.70;94.20;;;;;;5004456;28;20503;-81
2022/08/13 01:11:13;;;;;;;6.60;3.60;;;19.70;94.30;;;;;;5034260;28;20100;-80
2022/08/13 01:13:41;;;;;;;6.55;3.40;;;19.70;94.50;;;;;;5017108;28;20033;-80
2022/08/13 01:16:13;;;;;;;6.05;3.45;;;19.70;94.40;;;;;;5017938;28;20045;-80
2022/08/13 01:18:44;;;;;;;6.00;3.00;;;19.70;94.30;;;;;;5017422;28;20485;-80
2022/08/13 01:21:15;;;;;;;5.88;3.20;;;19.60;94.10;;;;;;5034107;28;20045;-80
2022/08/13 01:23:46;;;;;;;6.30;3.88;;;19.60;93.90;;;;;;5033566;28;20041;-80
2022/08/13 01:26:18;;;;;;;6.68;3.60;;;19.50;94.20;;;;;;5017636;28;20045;-80
2022/08/13 01:28:46;;;;;;;6.28;3.92;;;19.50;94.60;;;;;;5033822;28;20168;-81
2022/08/13 01:31:14;;;;;;;7.65;3.53;;;19.40;94.50;;;;;;5033867;28;20081;-80
2022/08/13 01:33:43;;;;;;;5.60;3.28;;;19.40;94.40;;;;;;5031831;28;20043;-80
2022/08/13 01:36:10;;;;;;;5.60;2.92;;;19.40;94.30;;;;;;5027027;28;20760;-81
2022/08/13 01:38:38;;;;;;;5.75;3.17;;;19.40;94.10;;;;;;5037819;28;20080;-80
2022/08/13 01:41:08;;;;;;;5.72;3.50;;;19.40;94.00;;;;;;5000952;28;20469;-80
2022/08/13 01:43:36;;;;;;;6.72;3.72;;;19.30;94.00;;;;;;5023205;28;20495;-80
2022/08/13 01:46:02;;;;;;;6.80;4.38;;;19.30;94.10;;;;;;5031648;28;20037;-80
2022/08/13 01:51:23;;;;;;;7.28;3.60;;;19.30;94.40;;;;;;5031986;28;20083;-81
2022/08/13 01:53:53;;;;;;;5.53;3.40;;;19.20;94.20;;;;;;5002915;28;20044;-80
2022/08/13 01:56:22;;;;;;;6.40;3.15;;;19.30;94.10;;;;;;5033732;28;20127;-80
2022/08/13 01:58:54;;;;;;;6.97;3.40;;;19.30;94.10;;;;;;4998697;28;20038;-81
2022/08/13 02:01:24;;;;;;;5.95;3.65;;;19.20;94.00;;;;;;5013774;28;20083;-80
2022/08/13 02:03:51;;;;;;;6.17;3.40;;;19.20;93.90;;;;;;4995961;28;20394;-80
2022/08/13 02:06:30;;;;;;;5.45;3.10;;;19.20;93.90;;;;;;5033002;28;20324;-81
2022/08/13 02:09:03;;;;;;;8.25;4.57;;;19.10;93.80;;;;;;5016574;28;20049;-80
2022/08/13 02:11:32;;;;;;;6.40;3.08;;;19.20;94.20;;;;;;5032468;28;20084;-80
2022/08/13 02:14:00;;;;;;;5.55;3.30;;;19.10;94.20;;;;;;5033319;28;20396;-81
2022/08/13 02:16:30;;;;;;;6.25;3.40;;;19.10;94.00;;;;;;5013760;28;20038;-81
2022/08/13 02:18:56;;;;;;;8.05;3.60;;;19.10;93.90;;;;;;5025410;28;20041;-80
2022/08/13 02:21:25;;;;;;;6.35;3.30;;;19.00;93.90;;;;;;4997564;28;20049;-81
2022/08/13 02:23:58;;;;;;;6.25;3.50;;;19.00;94.00;;;;;;5014951;28;20046;-80
2022/08/13 02:26:27;;;;;;;6.65;3.50;;;18.90;94.00;;;;;;5030531;28;20041;-81
2022/08/13 02:28:57;;;;;;;5.70;3.63;;;18.90;93.90;;;;;;5015539;28;20050;-81
2022/08/13 02:31:26;;;;;;;7.78;3.65;;;18.90;94.00;;;;;;5013224;28;20073;-80
2022/08/13 02:33:52;;;;;;;6.53;3.50;;;18.90;94.00;;;;;;5016210;28;20474;-81
2022/08/13 02:36:22;;;;;;;5.93;3.50;;;18.90;94.10;;;;;;5023862;28;20045;-81
2022/08/13 02:39:00;;;;;;;7.63;3.97;;;18.80;94.10;;;;;;5016024;28;20108;-80
2022/08/13 02:41:38;;;;;;;7.03;3.83;;;18.80;94.20;;;;;;5025521;28;20038;-80
2022/08/13 02:44:05;;;;;;;6.18;3.88;;;18.80;94.30;;;;;;5038388;28;20033;-81
2022/08/13 02:46:31;;;;;;;7.32;3.58;;;18.80;94.60;;;;;;5038795;28;20528;-80
2022/08/13 02:49:02;;;;;;;6.80;3.70;;;18.80;94.50;;;;;;5036830;28;20072;-80
2022/08/13 02:51:30;;;;;;;7.70;3.55;;;18.80;94.50;;;;;;5025666;28;20046;-80
2022/08/13 02:53:56;;;;;;;6.15;3.85;;;18.70;94.20;;;;;;5010974;28;20508;-80
2022/08/13 02:56:22;;;;;;;6.15;3.78;;;18.70;94.30;;;;;;5008808;28;20037;-80
2022/08/13 02:58:48;;;;;;;6.45;3.60;;;18.70;94.20;;;;;;5016598;28;20515;-80
2022/08/13 03:01:15;;;;;;;6.82;4.82;;;18.70;94.20;;;;;;5016926;28;20172;-80
2022/08/13 03:03:40;;;;;;;8.18;4.95;;;18.60;95.60;;;;;;5001949;28;20504;-80
2022/08/13 03:06:08;;;;;;;7.05;3.83;;;18.50;95.40;;;;;;5029961;28;20077;-80
2022/08/13 03:08:35;;;;;;;8.18;4.45;;;18.50;95.40;;;;;;5027944;28;20204;-80
2022/08/13 03:11:01;;;;;;;7.65;4.00;;;18.50;95.20;;;;;;5016518;28;20091;-80
2022/08/13 03:13:32;;;;;;;9.05;5.25;;;18.50;95.10;;;;;;5004299;28;20046;-76
2022/08/13 03:16:00;;;;;;;9.97;5.30;;;18.40;95.70;;;;;;5030561;28;20044;-76
2022/08/13 03:26:21;;;;;;;37.65;29.90;;;18.30;98.70;;;;;;5131366;27;20379;-77
2022/08/13 03:28:51;;;;;;;49.50;25.60;;;17.90;97.50;;;;;;5098819;28;20499;-77
2022/08/13 03:31:18;;;;;;;132.50;77.97;;;17.90;98.10;;;;;;5072542;28;20032;-77
2022/08/13 03:33:44;;;;;;;92.93;55.78;;;17.80;98.60;;;;;;5043400;27;20089;-77
2022/08/13 03:36:10;;;;;;;98.10;59.90;;;17.70;98.90;;;;;;5098222;28;20058;-77
2022/08/13 03:38:36;;;;;;;76.97;49.10;;;17.70;99.00;;;;;;5104285;28;20043;-77
2022/08/13 03:41:11;;;;;;;45.25;27.23;;;17.60;99.00;;;;;;5084181;28;20092;-77
2022/08/13 03:43:38;;;;;;;22.75;13.57;;;17.70;99.10;;;;;;5100634;28;20036;-77
2022/08/13 03:46:04;;;;;;;18.08;13.10;;;17.70;99.30;;;;;;5132479;27;20482;-77
2022/08/13 03:48:30;;;;;;;17.17;11.05;;;17.60;99.70;;;;;;5091612;28;20043;-77
2022/08/13 03:50:59;;;;;;;16.42;10.25;;;17.50;99.50;;;;;;5096243;28;20035;-77
2022/08/13 03:53:25;;;;;;;15.68;10.30;;;17.50;99.70;;;;;;5105479;28;20382;-77
2022/08/13 03:55:51;;;;;;;13.13;9.20;;;17.50;99.30;;;;;;5109812;28;20050;-77
2022/08/13 03:58:18;;;;;;;12.52;9.13;;;17.50;99.40;;;;;;5090865;28;20077;-77
2022/08/13 04:00:47;;;;;;;12.93;8.73;;;17.40;99.80;;;;;;5070970;28;20043;-77
2022/08/13 04:03:41;;;;;;;12.05;8.30;;;17.40;99.70;;;;;;5110551;28;20039;-77
2022/08/13 04:06:16;;;;;;;11.43;7.50;;;17.40;99.40;;;;;;5126491;28;20040;-77
2022/08/13 04:08:47;;;;;;;10.43;7.28;;;17.40;99.00;;;;;;5114904;28;20040;-77
2022/08/13 04:11:18;;;;;;;9.77;7.15;;;17.40;98.70;;;;;;5117076;28;20044;-77
2022/08/13 04:13:44;;;;;;;9.85;6.70;;;17.40;99.10;;;;;;5102101;28;20433;-77
2022/08/13 04:16:14;;;;;;;9.35;6.30;;;17.40;99.30;;;;;;5123217;28;20044;-77
2022/08/13 04:18:40;;;;;;;9.07;6.03;;;17.40;99.00;;;;;;5098946;28;20126;-77
2022/08/13 04:21:09;;;;;;;9.50;5.80;;;17.40;98.70;;;;;;5099809;28;20046;-77
2022/08/13 04:23:39;;;;;;;8.65;5.63;;;17.40;98.40;;;;;;5097699;28;20125;-78
2022/08/13 04:26:05;;;;;;;8.10;5.53;;;17.40;98.30;;;;;;5111022;28;20051;-77
2022/08/13 04:28:31;;;;;;;7.97;5.70;;;17.30;98.70;;;;;;5117474;28;20098;-77
2022/08/13 04:30:58;;;;;;;9.00;5.75;;;17.40;98.40;;;;;;5112432;28;20067;-77
2022/08/13 04:33:24;;;;;;;12.63;6.15;;;17.30;98.60;;;;;;5092833;28;20063;-77
2022/08/13 04:35:50;;;;;;;8.40;5.20;;;17.30;99.00;;;;;;5092661;28;20471;-77
2022/08/13 04:38:16;;;;;;;7.95;5.28;;;17.10;99.30;;;;;;5066935;28;20040;-78
2022/08/13 04:40:45;;;;;;;8.38;5.30;;;17.10;99.20;;;;;;5110480;28;20071;-77
2022/08/13 04:43:12;;;;;;;7.53;5.55;;;17.10;99.20;;;;;;5102329;28;20051;-77
2022/08/13 04:45:39;;;;;;;7.05;5.00;;;17.10;99.20;;;;;;5069013;28;20529;-77
2022/08/13 04:48:12;;;;;;;13.13;8.40;;;17.10;99.10;;;;;;5085152;28;20032;-77
2022/08/13 04:50:39;;;;;;;10.55;8.63;;;17.10;99.90;;;;;;5106160;28;20138;-77
2022/08/13 04:53:19;;;;;;;11.25;8.68;;;16.90;99.90;;;;;;5067678;28;20046;-78
2022/08/13 04:55:45;;;;;;;9.80;4.60;;;16.80;99.90;;;;;;5102545;28;20049;-78
2022/08/13 04:58:11;;;;;;;7.68;5.22;;;16.70;99.90;;;;;;5101811;28;20040;-77
2022/08/13 05:00:37;;;;;;;8.52;6.72;;;16.70;99.90;;;;;;5092184;28;20054;-78
2022/08/13 05:03:13;;;;;;;16.58;8.85;;;16.70;99.90;;;;;;5101485;28;20044;-77
2022/08/13 05:05:40;;;;;;;16.00;7.85;;;16.70;99.90;;;;;;5093075;28;20031;-77
2022/08/13 05:08:07;;;;;;;9.13;6.22;;;16.70;99.90;;;;;;5090561;28;20085;-77
2022/08/13 05:10:37;;;;;;;10.13;7.20;;;16.60;99.90;;;;;;5074609;28;20051;-77
2022/08/13 05:13:22;;;;;;;7.65;5.72;;;16.70;99.90;;;;;;5086000;28;20109;-77
2022/08/13 05:15:48;;;;;;;8.50;4.78;;;16.80;99.90;;;;;;5097639;28;20040;-77
2022/08/13 05:18:18;;;;;;;8.15;5.10;;;16.80;99.90;;;;;;5089020;28;20036;-78
2022/08/13 05:20:44;;;;;;;7.45;5.30;;;16.80;99.90;;;;;;5106141;28;20067;-77
2022/08/13 05:23:12;;;;;;;9.55;4.93;;;16.90;99.90;;;;;;5106601;28;20073;-77
2022/08/13 05:25:38;;;;;;;9.02;6.53;;;16.90;99.90;;;;;;5092127;28;20052;-78
2022/08/13 05:28:04;;;;;;;8.30;6.13;;;16.90;99.90;;;;;;5094524;28;20044;-78
2022/08/13 05:30:29;;;;;;;9.10;6.80;;;17.00;99.90;;;;;;5104283;28;20097;-78
2022/08/13 05:32:58;;;;;;;10.75;7.32;;;17.00;99.90;;;;;;5101503;28;20036;-78
2022/08/13 05:35:26;;;;;;;10.40;7.15;;;17.10;99.90;;;;;;5109650;28;20039;-78
2022/08/13 05:37:52;;;;;;;9.95;6.63;;;17.10;99.90;;;;;;5105825;28;20048;-78
2022/08/13 05:40:18;;;;;;;11.50;6.63;;;17.40;99.90;;;;;;5083889;28;20481;-78
2022/08/13 05:42:44;;;;;;;10.93;6.80;;;18.00;99.90;;;;;;5097625;28;20040;-78
2022/08/13 05:45:10;;;;;;;9.50;6.30;;;18.80;99.90;;;;;;5103697;28;20035;-78
2022/08/13 05:47:36;;;;;;;8.68;6.30;;;19.60;99.90;;;;;;5096897;28;20035;-78
2022/08/13 05:50:13;;;;;;;8.75;5.63;;;20.10;99.60;;;;;;5082866;28;20068;-80
2022/08/13 05:52:40;;;;;;;10.13;5.50;;;20.60;97.00;;;;;;5096535;28;20036;-80
2022/08/13 05:55:09;;;;;;;10.07;5.70;;;21.40;94.80;;;;;;5098372;28;20534;-80
2022/08/13 05:57:35;;;;;;;9.75;5.25;;;21.80;91.70;;;;;;5076382;28;20044;-80
2022/08/13 06:05:29;;;;;;;7.05;5.20;;;23.10;87.30;;;;;;5101560;28;20044;-80
2022/08/13 06:07:56;;;;;;;7.53;4.82;;;23.50;83.10;;;;;;5100115;28;20028;-80
2022/08/13 06:10:24;;;;;;;10.48;4.85;;;23.50;77.40;;;;;;5103528;28;20100;-80
2022/08/13 06:12:50;;;;;;;11.05;4.75;;;23.50;73.80;;;;;;5083932;28;20154;-78
2022/08/13 06:15:17;;;;;;;8.02;4.32;;;23.10;73.70;;;;;;5083370;28;20040;-78
2022/08/13 06:17:43;;;;;;;9.43;4.40;;;23.50;74.80;;;;;;5096303;28;20039;-78
2022/08/13 06:20:09;;;;;;;8.98;4.10;;;23.80;74.50;;;;;;5086356;28;20036;-78
2022/08/13 06:22:38;;;;;;;7.97;4.35;;;23.80;72.80;;;;;;5108851;28;20075;-78
2022/08/13 06:25:06;;;;;;;8.23;4.55;;;23.80;70.60;;;;;;5088923;28;20076;-78
2022/08/13 06:27:32;;;;;;;7.78;4.15;;;23.80;69.00;;;;;;5099178;28;20047;-78
2022/08/13 06:29:58;;;;;;;8.15;4.35;;;23.70;70.00;;;;;;5083771;28;20036;-78
2022/08/13 06:32:24;;;;;;;7.95;4.05;;;24.20;71.00;;;;;;5100232;28;20086;-78
2022/08/13 06:34:51;;;;;;;6.95;4.22;;;25.00;67.10;;;;;;5068441;28;20047;-78
2022/08/13 06:37:17;;;;;;;6.72;4.05;;;25.40;66.10;;;;;;5086139;28;20112;-78
2022/08/13 06:39:44;;;;;;;7.82;4.10;;;25.40;66.50;;;;;;5106044;28;20047;-78
2022/08/13 06:42:11;;;;;;;8.75;3.90;;;25.80;63.00;;;;;;5079749;28;20044;-78
2022/08/13 06:44:39;;;;;;;6.22;3.92;;;26.00;63.10;;;;;;5100426;28;20494;-78
2022/08/13 06:47:06;;;;;;;7.43;4.45;;;26.50;62.90;;;;;;5098988;28;20047;-78
2022/08/13 06:49:33;;;;;;;8.80;4.22;;;26.90;59.80;;;;;;5100265;28;20047;-79
2022/08/13 06:52:00;;;;;;;7.65;3.72;;;27.30;58.80;;;;;;5082712;28;20046;-78
2022/08/13 06:54:26;;;;;;;7.22;3.78;;;27.60;58.70;;;;;;5085419;28;20039;-78
2022/08/13 06:56:53;;;;;;;8.55;3.75;;;28.40;56.30;;;;;;5099503;28;20043;-78
2022/08/13 06:59:25;;;;;;;6.28;3.47;;;28.50;54.00;;;;;;5095853;28;20028;-78
2022/08/13 07:02:00;;;;;;;6.45;3.97;;;28.70;53.70;;;;;;5066503;28;20086;-78
2022/08/13 07:04:26;;;;;;;8.05;3.90;;;28.90;52.90;;;;;;5075054;28;20068;-78
2022/08/13 07:06:53;;;;;;;8.00;3.50;;;28.90;52.40;;;;;;5086323;28;20067;-78
2022/08/13 07:09:19;;;;;;;7.25;3.80;;;29.00;52.60;;;;;;5097659;28;20138;-79
2022/08/13 07:11:45;;;;;;;16.83;3.72;;;29.10;52.10;;;;;;5082260;28;20043;-79
2022/08/13 07:14:13;;;;;;;8.82;3.53;;;29.00;51.50;;;;;;5069475;28;20047;-78
2022/08/13 07:16:44;;;;;;;6.90;3.45;;;28.90;49.90;;;;;;5073579;28;20135;-79
2022/08/13 07:19:14;;;;;;;7.95;3.28;;;28.40;52.30;;;;;;5089518;28;20116;-79
2022/08/13 07:21:41;;;;;;;8.10;2.90;;;28.00;52.40;;;;;;5102454;28;20035;-79
2022/08/13 07:24:09;;;;;;;39.92;4.40;;;28.40;53.30;;;;;;5083056;28;20038;-79
2022/08/13 07:26:35;;;;;;;13.20;2.95;;;28.90;52.40;;;;;;5082675;28;20435;-79
2022/08/13 07:29:04;;;;;;;6.50;2.47;;;29.60;51.70;;;;;;5068455;28;20036;-79
2022/08/13 07:31:33;;;;;;;9.05;2.60;;;30.00;50.30;;;;;;5075230;28;20055;-79
2022/08/13 07:34:04;;;;;;;6.32;2.45;;;30.20;48.80;;;;;;5097073;28;20029;-79
2022/08/13 07:36:33;;;;;;;9.40;2.70;;;30.60;47.70;;;;;;5097415;28;20035;-79
2022/08/13 07:39:09;;;;;;;8.88;2.58;;;30.40;46.50;;;;;;5075792;28;20040;-79
2022/08/13 07:41:45;;;;;;;6.88;2.30;;;30.30;47.10;;;;;;5097146;28;20036;-79
2022/08/13 07:44:20;;;;;;;6.50;2.30;;;30.40;46.80;;;;;;5104466;28;20108;-79
2022/08/13 07:46:48;;;;;;;6.57;2.20;;;30.70;46.00;;;;;;5103612;28;20052;-79
2022/08/13 07:49:15;;;;;;;4.53;2.00;;;30.20;46.60;;;;;;5102748;28;20449;-79
2022/08/13 07:51:42;;;;;;;5.13;2.40;;;30.50;46.30;;;;;;5078048;28;20047;-79
2022/08/13 07:54:09;;;;;;;5.05;2.00;;;30.60;46.00;;;;;;5069274;28;20047;-79
2022/08/13 07:56:36;;;;;;;5.40;2.10;;;30.20;45.70;;;;;;5084524;28;20036;-79
2022/08/13 07:59:08;;;;;;;5.85;2.00;;;29.90;46.10;;;;;;5088141;28;20036;-79
2022/08/13 08:01:44;;;;;;;8.45;2.10;;;29.90;46.70;;;;;;5095661;28;20052;-79
2022/08/13 08:04:13;;;;;;;7.07;2.00;;;30.00;46.80;;;;;;5097642;28;20036;-79
2022/08/13 08:06:46;;;;;;;9.98;2.10;;;30.10;45.90;;;;;;5046994;28;20177;-79
2022/08/13 08:09:24;;;;;;;12.15;2.33;;;29.90;46.40;;;;;;5082333;28;20062;-79
2022/08/13 08:14:37;;;;;;;4.95;1.65;;;30.50;47.50;;;;;;5102123;28;20040;-79
2022/08/13 08:17:05;;;;;;;6.68;1.70;;;30.60;45.70;;;;;;5076738;28;20074;-79
2022/08/13 08:19:31;;;;;;;7.47;1.70;;;30.60;44.50;;;;;;5081289;28;20047;-79
2022/08/13 08:22:03;;;;;;;5.65;1.80;;;30.90;43.80;;;;;;5098064;28;20124;-79
2022/08/13 08:24:32;;;;;;;4.80;1.70;;;31.10;43.70;;;;;;5100404;28;20063;-79
2022/08/13 08:27:01;;;;;;;4.63;1.70;;;31.00;42.30;;;;;;5092666;28;20043;-79
2022/08/13 08:29:28;;;;;;;3.88;1.70;;;31.00;44.40;;;;;;5086431;28;20085;-79
2022/08/13 08:31:54;;;;;;;4.53;1.52;;;31.00;43.20;;;;;;5083406;28;20604;-79
2022/08/13 08:34:20;;;;;;;7.45;1.67;;;30.90;43.40;;;;;;5081722;28;20119;-79
2022/08/13 08:36:46;;;;;;;6.25;1.65;;;31.00;43.70;;;;;;5083710;28;20068;-79
2022/08/13 08:44:43;;;;;;;5.38;1.60;;;31.10;42.00;;;;;;5104336;28;20040;-79
2022/08/13 08:47:08;;;;;;;5.43;1.60;;;31.30;41.50;;;;;;5072098;28;20093;-79
2022/08/13 08:49:36;;;;;;;5.22;1.50;;;31.40;39.30;;;;;;5096980;28;20437;-79
2022/08/13 08:52:03;;;;;;;4.72;1.55;;;31.20;40.20;;;;;;5087789;28;20114;-79
2022/08/13 08:54:30;;;;;;;5.28;1.60;;;31.20;39.50;;;;;;5099191;28;20052;-79
2022/08/13 08:56:56;;;;;;;6.05;1.50;;;31.20;39.40;;;;;;5088528;28;20104;-79
2022/08/13 08:59:42;;;;;;;4.63;1.50;;;31.10;39.90;;;;;;5105580;28;20486;-79
2022/08/13 09:02:19;;;;;;;8.38;1.52;;;31.20;39.30;;;;;;5070104;28;20482;-79
2022/08/13 09:04:53;;;;;;;4.90;1.60;;;30.90;39.50;;;;;;5100992;28;20120;-79
2022/08/13 09:07:21;;;;;;;6.05;1.50;;;31.20;38.80;;;;;;5082179;28;20040;-79
2022/08/13 09:09:51;;;;;;;3.60;1.65;;;31.30;38.80;;;;;;5099832;28;20217;-79
2022/08/13 09:12:25;;;;;;;3.95;1.50;;;31.40;38.60;;;;;;5098459;28;20119;-79
2022/08/13 09:14:52;;;;;;;4.85;1.52;;;31.40;39.00;;;;;;5101767;28;20044;-79
2022/08/13 09:17:19;;;;;;;14.48;2.03;;;31.20;37.90;;;;;;5084136;28;20077;-80
2022/08/13 09:19:45;;;;;;;5.68;1.60;;;31.00;38.20;;;;;;5089514;28;20592;-79
2022/08/13 09:22:14;;;;;;;5.13;1.60;;;31.10;40.00;;;;;;5071832;28;20130;-79
2022/08/13 09:24:46;;;;;;;4.97;1.50;;;31.50;38.80;;;;;;5095319;28;20052;-79
2022/08/13 09:27:15;;;;;;;4.03;1.50;;;31.70;37.80;;;;;;5092914;28;20047;-79
2022/08/13 09:29:43;;;;;;;4.82;1.70;;;31.70;37.70;;;;;;5083678;28;20036;-79
2022/08/13 09:32:09;;;;;;;6.47;1.50;;;31.90;37.30;;;;;;5082067;28;20044;-80
2022/08/13 09:34:37;;;;;;;6.15;1.60;;;31.60;37.40;;;;;;5080842;28;20042;-79
2022/08/13 09:37:04;;;;;;;6.53;1.60;;;31.40;37.60;;;;;;5080365;28;20039;-79
2022/08/13 09:39:46;;;;;;;5.75;1.77;;;31.50;37.80;;;;;;5075731;28;20071;-79
2022/08/13 09:42:18;;;;;;;4.00;1.42;;;31.60;37.10;;;;;;5098009;28;20082;-79
2022/08/13 09:44:43;;;;;;;6.47;1.63;;;32.00;36.90;;;;;;5100130;28;20040;-79
2022/08/13 09:47:10;;;;;;;5.57;1.52;;;32.20;35.50;;;;;;5088390;28;20478;-79
2022/08/13 09:49:36;;;;;;;5.25;1.42;;;32.10;35.80;;;;;;5075676;28;20032;-79
2022/08/13 09:52:02;;;;;;;4.45;1.55;;;32.20;36.30;;;;;;5102599;28;20119;-79
2022/08/13 09:54:28;;;;;;;4.88;1.70;;;32.30;35.40;;;;;;5069842;28;20070;-79
2022/08/13 09:56:57;;;;;;;5.45;1.67;;;32.30;35.70;;;;;;5096977;28;20040;-79
2022/08/13 09:59:23;;;;;;;5.13;1.70;;;32.40;35.90;;;;;;5100883;28;20040;-79
2022/08/13 10:01:49;;;;;;;5.65;1.55;;;32.60;33.70;;;;;;5082898;28;20406;-79
2022/08/13 10:04:18;;;;;;;4.03;1.58;;;32.70;34.90;;;;;;5082860;28;20081;-79
2022/08/13 10:06:47;;;;;;;5.15;1.60;;;32.80;33.70;;;;;;5082140;28;20045;-79
2022/08/13 10:09:14;;;;;;;5.47;1.60;;;32.80;34.40;;;;;;5084051;28;20032;-79
2022/08/13 10:11:40;;;;;;;4.03;1.40;;;32.90;33.80;;;;;;5098260;28;20032;-79
2022/08/13 10:14:06;;;;;;;4.55;1.50;;;32.90;34.00;;;;;;5094953;28;20393;-79
2022/08/13 10:16:33;;;;;;;5.35;1.50;;;32.80;32.80;;;;;;5084681;28;20423;-79
2022/08/13 10:19:02;;;;;;;3.60;1.50;;;32.50;33.80;;;;;;5069995;28;20036;-79
2022/08/13 10:21:28;;;;;;;5.38;1.50;;;32.30;33.30;;;;;;5060059;28;20036;-79
2022/08/13 10:23:57;;;;;;;4.85;1.55;;;32.60;33.70;;;;;;5065627;28;20036;-79
2022/08/13 10:26:23;;;;;;;4.88;1.60;;;32.60;33.50;;;;;;5088537;28;20498;-78
2022/08/13 10:28:49;;;;;;;6.97;1.60;;;32.80;32.80;;;;;;5059428;28;20043;-79
2022/08/13 10:31:14;;;;;;;4.50;1.42;;;32.60;32.00;;;;;;5070032;28;20039;-79
2022/08/13 10:33:40;;;;;;;6.43;1.48;;;32.80;32.60;;;;;;5103201;28;20032;-78
2022/08/13 10:36:07;;;;;;;3.47;1.38;;;32.90;32.70;;;;;;5111853;28;20047;-79
2022/08/13 10:38:33;;;;;;;3.65;1.42;;;32.90;32.30;;;;;;5103466;28;20036;-80
2022/08/13 10:41:07;;;;;;;4.53;1.40;;;32.80;32.00;;;;;;5087834;28;20066;-79
2022/08/13 10:43:38;;;;;;;3.33;1.30;;;32.80;33.00;;;;;;5100762;28;20487;-79
2022/08/13 10:46:05;;;;;;;2.88;1.20;;;32.90;32.70;;;;;;5103654;28;20050;-78
2022/08/13 10:48:31;;;;;;;3.30;1.40;;;32.90;32.00;;;;;;5083906;28;20043;-78
2022/08/13 10:50:58;;;;;;;6.50;1.40;;;32.90;32.00;;;;;;5094319;28;20186;-79
2022/08/13 10:56:11;;;;;;;3.72;1.33;;;33.00;31.90;;;;;;5107440;28;20036;-80
2022/08/13 10:58:38;;;;;;;4.53;1.48;;;33.00;30.90;;;;;;5087114;28;20144;-79
2022/08/13 11:01:05;;;;;;;4.88;1.45;;;33.00;31.40;;;;;;5072176;28;20036;-79
2022/08/13 11:03:33;;;;;;;3.58;1.35;;;33.00;31.40;;;;;;5087677;28;20043;-79
2022/08/13 11:06:04;;;;;;;3.65;1.60;;;33.10;30.30;;;;;;5109922;28;20039;-79
2022/08/13 11:08:40;;;;;;;3.70;1.40;;;33.10;31.40;;;;;;5105498;28;20068;-78
2022/08/13 11:11:10;;;;;;;2.95;1.27;;;33.00;31.20;;;;;;5120610;28;20044;-78
2022/08/13 11:13:37;;;;;;;4.15;1.30;;;33.10;32.30;;;;;;5111869;28;20039;-78
2022/08/13 11:16:06;;;;;;;4.80;1.45;;;33.00;31.10;;;;;;5091136;28;20302;-78
2022/08/13 11:18:32;;;;;;;4.60;1.38;;;32.70;31.10;;;;;;5106131;28;20078;-80
2022/08/13 11:21:07;;;;;;;4.45;1.50;;;33.00;32.20;;;;;;5076314;28;20102;-80
2022/08/13 11:23:36;;;;;;;3.58;1.40;;;33.10;30.70;;;;;;5086043;28;20122;-80
2022/08/13 11:26:03;;;;;;;4.38;1.30;;;33.30;30.00;;;;;;5070070;28;20579;-80
2022/08/13 11:28:28;;;;;;;5.15;1.30;;;33.20;31.30;;;;;;5086698;28;20496;-80
2022/08/13 11:30:55;;;;;;;4.95;1.70;;;33.40;30.70;;;;;;5087040;28;20040;-80
2022/08/13 11:33:23;;;;;;;4.13;1.40;;;33.20;30.30;;;;;;5079655;28;20044;-80
2022/08/13 11:35:51;;;;;;;4.25;1.40;;;33.10;31.60;;;;;;5077269;28;20127;-81
2022/08/13 11:38:20;;;;;;;4.32;1.35;;;33.30;31.30;;;;;;5078844;28;20479;-81
2022/08/13 11:40:48;;;;;;;5.15;1.70;;;33.40;31.70;;;;;;5095471;28;20052;-81
2022/08/13 11:43:14;;;;;;;4.95;1.50;;;33.30;30.50;;;;;;5081773;28;20040;-81
2022/08/13 11:45:40;;;;;;;4.00;1.50;;;33.30;30.60;;;;;;5093006;28;20478;-80
2022/08/13 11:48:06;;;;;;;4.13;1.35;;;33.40;30.10;;;;;;5084736;28;20035;-81
2022/08/13 11:50:32;;;;;;;5.68;1.60;;;33.20;30.60;;;;;;5104078;28;20047;-80
2022/08/13 11:53:02;;;;;;;4.93;1.50;;;33.10;30.10;;;;;;5087306;28;20070;-80
2022/08/13 11:55:27;;;;;;;3.75;1.40;;;33.40;30.50;;;;;;5072778;28;20054;-80
2022/08/13 11:58:06;;;;;;;3.47;1.30;;;33.40;31.00;;;;;;5098866;28;20044;-81
2022/08/13 12:00:35;;;;;;;3.90;1.45;;;33.30;30.30;;;;;;5108451;28;20766;-81
2022/08/13 12:03:03;;;;;;;4.80;1.63;;;33.40;30.10;;;;;;5076898;28;20113;-80
2022/08/13 12:05:29;;;;;;;5.70;1.70;;;33.40;30.50;;;;;;5103831;28;20050;-80
2022/08/13 12:07:55;;;;;;;5.28;1.50;;;33.60;30.90;;;;;;5085800;28;20123;-80
2022/08/13 12:10:21;;;;;;;4.45;1.67;;;33.50;30.20;;;;;;5102719;28;20047;-80
2022/08/13 12:12:48;;;;;;;5.13;1.75;;;33.50;30.40;;;;;;5077922;28;20039;-80
2022/08/13 12:15:14;;;;;;;4.20;1.60;;;33.50;31.10;;;;;;5100345;28;20106;-80
2022/08/13 12:17:46;;;;;;;3.30;1.52;;;33.60;30.70;;;;;;5082012;28;20044;-80
2022/08/13 12:20:20;;;;;;;5.00;1.58;;;33.50;30.70;;;;;;5089407;28;20044;-80
2022/08/13 12:22:51;;;;;;;4.75;1.60;;;33.50;31.70;;;;;;5087972;28;20114;-80
2022/08/13 12:25:17;;;;;;;4.15;1.70;;;33.40;31.40;;;;;;5090661;28;20048;-80
2022/08/13 12:27:43;;;;;;;5.00;1.70;;;33.30;31.60;;;;;;5101875;28;20122;-80
2022/08/13 12:30:09;;;;;;;5.20;1.52;;;33.30;30.50;;;;;;5088558;28;20119;-80
2022/08/13 12:32:35;;;;;;;4.85;1.60;;;33.40;30.50;;;;;;5053720;28;20036;-80
2022/08/13 12:35:00;;;;;;;3.50;1.60;;;33.40;30.50;;;;;;5090231;28;20051;-80
2022/08/13 12:37:26;;;;;;;7.40;1.98;;;33.40;30.50;;;;;;5100289;28;20071;-80
2022/08/13 12:39:54;;;;;;;4.85;1.80;;;33.30;30.80;;;;;;5070716;28;20482;-80
2022/08/13 12:42:20;;;;;;;3.92;1.80;;;33.40;31.10;;;;;;5090595;28;20074;-80
2022/08/13 12:44:46;;;;;;;4.97;1.70;;;33.40;30.60;;;;;;5075089;28;20491;-80
2022/08/13 12:47:12;;;;;;;5.07;1.80;;;33.50;30.90;;;;;;5084110;28;20115;-80
2022/08/13 12:49:37;;;;;;;4.88;1.70;;;33.40;30.70;;;;;;5102882;28;20367;-80
2022/08/13 12:52:03;;;;;;;4.82;1.70;;;33.40;30.40;;;;;;5060666;28;20032;-80
2022/08/13 12:54:29;;;;;;;4.60;1.55;;;33.30;30.90;;;;;;5103631;28;20040;-80
2022/08/13 12:56:55;;;;;;;3.67;1.50;;;33.10;30.90;;;;;;5085376;28;20112;-80
2022/08/13 12:59:20;;;;;;;5.65;1.80;;;33.10;31.00;;;;;;5072174;28;20551;-80
2022/08/13 13:01:52;;;;;;;5.47;1.90;;;32.90;31.00;;;;;;5099199;28;20036;-80
2022/08/13 13:04:19;;;;;;;6.18;1.75;;;32.80;31.50;;;;;;5100406;28;20432;-80
2022/08/13 13:06:44;;;;;;;10.13;1.90;;;33.00;31.60;;;;;;5109476;28;20036;-80
2022/08/13 13:09:10;;;;;;;4.28;1.90;;;32.90;31.20;;;;;;5072440;28;20482;-80
2022/08/13 13:11:36;;;;;;;5.53;1.80;;;32.80;31.70;;;;;;5084390;28;20233;-80
2022/08/13 13:14:02;;;;;;;5.00;1.70;;;32.40;32.20;;;;;;5108186;28;20028;-80
2022/08/13 13:16:28;;;;;;;4.72;1.60;;;32.20;31.70;;;;;;5084239;28;20044;-80
2022/08/13 13:18:55;;;;;;;4.63;1.80;;;32.10;31.80;;;;;;5087025;28;20140;-79
2022/08/13 13:21:21;;;;;;;4.47;1.80;;;31.90;32.20;;;;;;5105828;28;20043;-80